Time;durP1;ratioP1;P1;durP2;ratioP2;P2;SDS_P1;SDS_P2;PMS_P1;PMS_P2;Temp;Humidity;BMP_temperature;BMP_pressure;BME280_temperature;BME280_humidity;BME280_pressure;Samples;Min_cycle;Max_cycle;Signal;HPM_P1;HPM_P2
2022/04/01 16:28:12;;;;;;;29.00;5.70;;;;;;;6.69;29.24;99631.98;5343575;54;46141;-69
2022/04/01 16:33:19;;;;;;;11.07;4.23;;;;;;;6.55;29.79;99637.91;5161819;56;1130665;-69
2022/04/01 16:38:25;;;;;;;35.00;4.60;;;;;;;6.43;29.87;99637.02;5141348;57;1134841;-69
2022/04/01 16:43:32;;;;;;;18.50;3.87;;;;;;;6.33;30.29;99651.80;5087148;57;1134858;-69
2022/04/01 16:48:38;;;;;;;33.40;4.83;;;;;;;6.27;30.58;99663.58;5052292;57;1134884;-69
2022/04/01 16:53:44;;;;;;;26.67;4.43;;;;;;;6.16;31.80;99674.03;5059173;57;1134832;-69
2022/04/01 16:58:51;;;;;;;8.60;3.63;;;;;;;6.11;33.20;99671.40;5047431;58;1134855;-70
2022/04/01 17:03:58;;;;;;;49.60;5.43;;;;;;;6.00;33.54;99683.48;5012038;57;1132750;-69
2022/04/01 17:14:27;;;;;;;25.10;5.30;;;;;;;5.69;34.10;99700.18;5077448;56;1132777;-69
2022/04/01 17:19:33;;;;;;;10.60;2.97;;;;;;;5.47;34.30;99700.39;5118427;57;1132744;-69
2022/04/01 17:24:40;;;;;;;23.10;5.10;;;;;;;5.45;35.34;99705.38;5074925;57;1132970;-69
2022/04/01 17:29:46;;;;;;;26.53;4.70;;;;;;;5.26;36.46;99724.98;5100584;56;1133021;-69
2022/04/01 17:34:57;;;;;;;32.80;6.80;;;;;;;5.26;36.46;99724.98;5221877;56;1132766;-69
2022/04/01 17:40:05;;;;;;;23.87;6.77;;;;;;;5.20;36.97;99720.62;5160112;56;1132753;-69
2022/04/01 17:45:12;;;;;;;15.23;4.80;;;;;;;5.11;37.74;99719.95;5152954;56;1132894;-69
2022/04/01 17:50:18;;;;;;;15.13;4.30;;;;;;;4.88;37.97;99724.13;5156276;55;1132938;-69
2022/04/01 17:55:23;;;;;;;21.30;7.07;;;;;;;4.81;38.40;99726.30;5187670;55;1133209;-69
2022/04/01 18:00:33;;;;;;;29.47;9.30;;;;;;;4.79;38.57;99732.11;5200822;56;1132813;-70
2022/04/01 18:05:40;;;;;;;49.30;10.63;;;;;;;4.76;38.88;99735.39;5206605;56;1132798;-69
2022/04/01 18:10:47;;;;;;;22.60;7.87;;;;;;;4.69;39.21;99739.38;5125395;57;1134880;-69
2022/04/01 18:15:53;;;;;;;18.98;5.25;;;;;;;4.58;39.90;99744.83;5110965;57;1130801;-69
2022/04/01 18:21:00;;;;;;;22.87;4.97;;;;;;;4.47;40.50;99743.86;5138530;56;1130759;-69
2022/04/01 18:26:27;;;;;;;18.50;6.33;;;;;;;4.39;40.33;99756.61;5092325;57;1135038;-69
2022/04/01 18:31:37;;;;;;;22.27;6.70;;;;;;;4.32;40.90;99761.86;5160984;56;1134808;-70
2022/04/01 18:36:43;;;;;;;26.23;6.13;;;;;;;4.24;41.29;99765.82;5156228;56;1134817;-69
2022/04/01 18:41:51;;;;;;;28.53;6.80;;;;;;;4.23;41.40;99771.15;5167713;56;1134837;-68
2022/04/01 18:46:57;;;;;;;12.50;4.87;;;;;;;4.21;42.27;99775.64;5193368;56;1135010;-69
2022/04/01 18:52:03;;;;;;;19.03;7.90;;;;;;;4.15;42.43;99778.16;5149804;56;1134860;-70
2022/04/01 18:57:08;;;;;;;30.53;9.03;;;;;;;4.06;42.78;99793.14;5117917;57;1135110;-69
2022/04/01 19:02:22;;;;;;;22.80;5.83;;;;;;;3.97;43.22;99800.73;5127278;56;1135191;-69
2022/04/01 19:08:18;;;;;;;23.92;5.28;;;;;;;3.91;43.72;99805.86;5164304;56;1134811;-69
2022/04/01 19:13:25;;;;;;;12.97;5.00;;;;;;;3.83;44.64;99801.55;4925347;59;1135062;-69
2022/04/01 19:18:35;;;;;;;16.07;5.57;;;;;;;3.78;44.71;99816.24;5053526;57;1135115;-69
2022/04/01 19:23:41;;;;;;;11.83;5.57;;;;;;;3.77;45.20;99814.56;5132815;56;1134976;-69
2022/04/01 19:28:47;;;;;;;19.87;8.03;;;;;;;3.67;46.06;99817.80;5193297;56;1134899;-69
2022/04/01 19:33:53;;;;;;;14.37;4.30;;;;;;;3.66;45.80;99826.14;5242085;55;1135190;-69
2022/04/01 19:39:00;;;;;;;23.53;5.43;;;;;;;3.59;46.41;99826.59;5242159;55;1134868;-69
2022/04/01 19:44:06;;;;;;;8.43;3.73;;;;;;;3.48;46.70;99828.55;5237947;55;1134929;-69
2022/04/01 19:49:12;;;;;;;20.40;6.10;;;;;;;3.38;48.02;99829.53;5185578;55;1133052;-69
2022/04/01 19:54:20;;;;;;;20.73;6.33;;;;;;;3.28;48.68;99835.41;5189396;55;1134967;-69
2022/04/01 19:59:26;;;;;;;16.03;6.03;;;;;;;3.23;48.51;99840.89;5199461;56;1134837;-69
2022/04/01 20:04:31;;;;;;;18.37;6.43;;;;;;;3.28;48.10;99844.08;5220819;56;1135130;-70
2022/04/01 20:09:36;;;;;;;12.10;5.17;;;;;;;3.18;48.86;99839.88;5234828;56;1134896;-70
2022/04/01 20:14:43;;;;;;;8.33;3.53;;;;;;;3.09;49.55;99839.54;5208280;56;1135047;-69
2022/04/01 20:19:49;;;;;;;20.53;5.23;;;;;;;3.01;50.74;99843.07;5241957;56;1130933;-69
2022/04/01 20:24:54;;;;;;;11.47;5.00;;;;;;;3.01;50.10;99844.38;5242063;56;1132807;-69
2022/04/01 20:30:02;;;;;;;13.43;4.60;;;;;;;3.02;50.10;99844.30;5209277;56;1132901;-69
2022/04/01 20:35:08;;;;;;;8.77;3.77;;;;;;;2.96;50.70;99846.41;5168514;56;1132746;-69
2022/04/01 20:40:14;;;;;;;9.50;4.17;;;;;;;2.89;50.91;99852.45;5178028;56;1130715;-69
2022/04/01 20:45:23;;;;;;;12.20;5.17;;;;;;;2.83;52.25;99847.10;5164587;56;1130731;-69
2022/04/01 20:50:28;;;;;;;17.07;7.23;;;;;;;2.74;51.18;99848.94;5164580;56;1133038;-68
2022/04/01 20:55:34;;;;;;;18.27;6.50;;;;;;;2.71;51.73;99845.19;5164585;56;1132838;-69
2022/04/01 21:00:40;;;;;;;13.53;5.40;;;;;;;2.61;52.10;99842.69;5164621;56;1133008;-69
2022/04/01 21:05:47;;;;;;;18.03;4.20;;;;;;;2.58;53.54;99838.98;5082845;57;1132791;-69
2022/04/01 21:10:53;;;;;;;11.10;4.63;;;;;;;2.45;53.05;99841.86;5108535;57;1132776;-68
2022/04/01 21:15:59;;;;;;;7.63;4.00;;;;;;;2.38;53.96;99841.37;5163017;56;1132898;-68
2022/04/01 21:21:05;;;;;;;12.03;4.37;;;;;;;2.33;54.36;99836.02;5162811;57;1130747;-68
2022/04/01 21:31:34;;;;;;;8.33;4.12;;;;;;;2.28;54.56;99830.22;5172379;56;1130671;-68
2022/04/01 21:36:40;;;;;;;9.50;4.07;;;;;;;2.26;54.63;99830.77;5156363;57;1128853;-69
2022/04/01 21:41:45;;;;;;;10.07;3.90;;;;;;;2.17;54.87;99836.00;5156399;57;1132809;-69
2022/04/01 21:46:51;;;;;;;19.20;6.07;;;;;;;2.07;55.61;99825.23;5156458;57;1134855;-69
2022/04/01 21:51:57;;;;;;;9.83;3.23;;;;;;;2.00;55.59;99838.67;5156164;57;1134877;-69
2022/04/01 21:57:04;;;;;;;8.00;3.33;;;;;;;1.88;57.29;99831.50;5156345;57;1132988;-69
2022/04/01 22:02:14;;;;;;;9.85;4.17;;;;;;;1.88;56.50;99831.50;5181665;56;1132760;-69
2022/04/01 22:07:17;;;;;;;9.73;4.13;;;;;;;1.84;57.58;99829.97;5216797;56;1132830;-69
2022/04/01 22:12:23;;;;;;;10.10;4.30;;;;;;;1.82;57.87;99820.95;5242837;55;1132879;-69
2022/04/01 22:17:28;;;;;;;6.40;3.50;;;;;;;1.68;59.50;99823.45;5177647;56;1134872;-69
2022/04/01 22:22:34;;;;;;;8.43;3.47;;;;;;;1.68;59.50;99823.45;5191674;55;1132764;-70
2022/04/01 22:27:41;;;;;;;12.93;3.87;;;;;;;1.60;59.99;99826.89;5242615;55;1132798;-70
2022/04/01 22:32:47;;;;;;;8.80;3.10;;;;;;;1.55;59.58;99829.73;5167703;56;1134884;-70
2022/04/01 22:37:53;;;;;;;8.43;3.23;;;;;;;1.57;60.74;99827.05;5155748;56;1132996;-70
2022/04/01 22:43:00;;;;;;;13.70;4.63;;;;;;;1.54;60.98;99829.34;5155860;56;1132783;-70
2022/04/01 22:48:07;;;;;;;7.17;2.80;;;;;;;1.58;60.62;99827.44;5155711;57;1134941;-70
2022/04/01 22:53:12;;;;;;;10.30;3.10;;;;;;;1.51;62.63;99827.38;5155880;57;1132821;-70
2022/04/01 22:58:19;;;;;;;7.07;3.80;;;;;;;1.45;61.43;99833.74;5155755;57;1134831;-71
2022/04/01 23:03:25;;;;;;;8.20;4.00;;;;;;;1.43;61.64;99832.13;5155612;56;1132934;-70
2022/04/01 23:08:31;;;;;;;12.00;4.20;;;;;;;1.37;62.23;99826.80;5155676;57;1132949;-70
2022/04/01 23:13:36;;;;;;;9.03;3.10;;;;;;;1.39;61.82;99825.77;5155748;57;1134908;-70
2022/04/01 23:18:42;;;;;;;16.20;4.53;;;;;;;1.41;62.26;99826.99;5155668;56;1132898;-70
2022/04/01 23:23:48;;;;;;;12.33;3.60;;;;;;;1.37;61.98;99820.28;5212849;56;1134880;-70
2022/04/01 23:28:53;;;;;;;8.10;3.50;;;;;;;1.45;62.04;99825.92;5234854;56;1134871;-70
2022/04/01 23:33:59;;;;;;;8.33;3.67;;;;;;;1.40;62.87;99828.75;5143441;57;1132812;-70
2022/04/01 23:39:04;;;;;;;10.60;4.12;;;;;;;1.33;63.14;99835.67;5142270;56;1132790;-70
2022/04/01 23:44:11;;;;;;;8.47;3.73;;;;;;;1.27;63.31;99833.37;5142399;56;1134862;-70
2022/04/01 23:49:19;;;;;;;9.00;3.83;;;;;;;1.27;63.21;99830.77;5142276;56;1132837;-69
2022/04/01 23:54:25;;;;;;;6.55;3.47;;;;;;;1.23;63.54;99824.02;5142201;56;1132689;-70
2022/04/01 23:59:31;;;;;;;12.40;4.37;;;;;;;1.21;64.43;99821.97;5142362;56;1132877;-70
